createdAt,value
2022-08-30T00:07:35.962Z,1.00
2022-08-30T00:10:09.424Z,1.05
2022-08-30T00:12:37.391Z,0.98
2022-08-30T00:15:07.092Z,1.40
2022-08-30T00:17:41.857Z,1.30
2022-08-30T00:20:12.534Z,1.13
2022-08-30T00:22:45.766Z,1.27
2022-08-30T00:25:14.000Z,0.90
2022-08-30T00:27:42.113Z,1.20
2022-08-30T00:30:17.194Z,1.20
2022-08-30T00:32:48.701Z,1.10
2022-08-30T00:35:45.038Z,0.95
2022-08-30T00:38:17.574Z,1.15
2022-08-30T00:43:39.404Z,1.00
2022-08-30T00:46:13.363Z,1.02
2022-08-30T00:48:45.030Z,1.35
2022-08-30T00:51:14.520Z,1.15
2022-08-30T00:53:46.529Z,1.17
2022-08-30T00:56:14.395Z,1.40
2022-08-30T00:58:46.427Z,1.20
2022-08-30T01:05:27.354Z,1.35
2022-08-30T01:08:28.038Z,1.10
2022-08-30T01:11:04.375Z,1.15
2022-08-30T01:13:58.455Z,1.10
2022-08-30T01:16:51.513Z,1.20
2022-08-30T01:19:31.227Z,1.27
2022-08-30T01:22:07.960Z,1.42
2022-08-30T01:24:35.790Z,1.25
2022-08-30T01:27:04.014Z,1.05
2022-08-30T01:29:36.723Z,1.40
2022-08-30T01:32:08.151Z,0.90
2022-08-30T01:34:38.079Z,1.00
2022-08-30T02:32:18.649Z,1.15
2022-08-30T02:34:47.725Z,1.30
2022-08-30T02:58:05.065Z,1.45
2022-08-30T03:00:33.463Z,0.98
2022-08-30T03:03:07.567Z,1.30
2022-08-30T03:33:45.402Z,1.00
2022-08-30T03:36:13.425Z,1.08
2022-08-30T03:39:07.885Z,1.23
2022-08-30T03:41:45.912Z,1.00
2022-08-30T04:26:04.554Z,1.10
2022-08-30T04:28:36.571Z,1.00
2022-08-30T04:31:12.167Z,1.02
2022-08-30T04:33:45.475Z,1.20
2022-08-30T04:36:14.310Z,1.20
2022-08-30T04:38:42.353Z,1.00
2022-08-30T04:41:18.501Z,1.30
2022-08-30T04:43:47.199Z,1.15
2022-08-30T04:46:21.070Z,1.20
2022-08-30T04:48:49.464Z,1.20
2022-08-30T04:51:26.935Z,1.40
2022-08-30T05:12:28.028Z,1.02
2022-08-30T05:14:58.773Z,1.20
2022-08-30T05:17:31.309Z,1.23
2022-08-30T05:22:53.626Z,0.93
2022-08-30T05:28:42.195Z,1.27
2022-08-30T05:37:11.363Z,1.05
2022-08-30T05:39:51.324Z,1.33
2022-08-30T05:42:19.815Z,1.33
2022-08-30T05:44:57.198Z,1.30
2022-08-30T05:47:25.805Z,1.13
2022-08-30T05:50:18.147Z,1.38
2022-08-30T05:52:45.325Z,1.58
2022-08-30T05:55:46.368Z,1.13
2022-08-30T05:58:13.300Z,1.25
2022-08-30T06:00:42.070Z,1.10
2022-08-30T06:03:17.074Z,1.40
2022-08-30T06:08:22.495Z,2.08
2022-08-30T06:10:49.729Z,1.65
2022-08-30T06:13:17.563Z,1.58
2022-08-30T06:16:00.503Z,1.48
2022-08-30T06:18:28.548Z,1.50
2022-08-30T06:21:04.068Z,1.80
2022-08-30T06:23:31.885Z,1.63
2022-08-30T06:26:07.494Z,1.83
2022-08-30T06:28:40.696Z,1.30
2022-08-30T06:31:16.074Z,1.48
2022-08-30T06:33:44.523Z,1.50
2022-08-30T06:39:13.845Z,1.35
2022-08-30T06:44:29.517Z,1.35
2022-08-30T06:46:57.693Z,1.30
2022-08-30T06:49:32.184Z,1.55
2022-08-30T06:52:25.844Z,1.30
2022-08-30T06:54:55.357Z,1.85
2022-08-30T06:57:48.937Z,0.95
2022-08-30T07:03:23.851Z,1.35
2022-08-30T07:11:37.833Z,0.90
2022-08-30T07:14:05.593Z,1.30
2022-08-30T07:16:36.199Z,1.30
2022-08-30T07:19:06.475Z,0.98
2022-08-30T07:27:29.744Z,1.40
2022-08-30T11:05:56.307Z,0.90
2022-08-30T11:24:10.786Z,1.10
2022-08-30T11:26:56.741Z,0.90
2022-08-30T11:38:39.908Z,0.80
2022-08-30T11:41:28.875Z,1.13
2022-08-30T11:44:21.866Z,1.10
2022-08-30T11:46:53.638Z,0.80
2022-08-30T12:09:54.534Z,0.98
2022-08-30T12:21:28.916Z,0.90
2022-08-30T12:26:49.419Z,1.00
2022-08-30T12:29:37.609Z,0.90
2022-08-30T12:32:32.605Z,1.08
2022-08-30T13:07:03.068Z,1.05
2022-08-30T13:10:12.047Z,0.90
2022-08-30T13:12:49.915Z,0.90
2022-08-30T13:15:33.694Z,0.80
2022-08-30T13:18:26.619Z,0.80
2022-08-30T13:21:10.972Z,0.70
2022-08-30T13:26:23.534Z,0.90
2022-08-30T13:31:46.063Z,1.00
2022-08-30T13:39:42.852Z,0.80
2022-08-30T13:42:32.489Z,0.68
2022-08-30T13:44:59.328Z,0.98
2022-08-30T13:53:02.134Z,0.95
2022-08-30T14:07:58.110Z,0.85
2022-08-30T14:10:31.757Z,0.90
2022-08-30T14:13:29.148Z,0.80
2022-08-30T14:34:13.577Z,0.60
2022-08-30T14:39:28.252Z,0.80
2022-08-30T15:36:38.678Z,0.55
2022-08-30T15:44:41.864Z,0.68
2022-08-30T15:47:14.390Z,0.50
2022-08-30T15:49:41.417Z,0.70
2022-08-30T16:00:27.191Z,0.50
2022-08-30T16:09:15.651Z,0.85
2022-08-30T16:26:44.941Z,0.40
2022-08-30T16:29:15.094Z,0.35
2022-08-30T16:34:29.474Z,0.60
2022-08-30T16:37:10.705Z,0.20
2022-08-30T16:39:46.675Z,0.90
2022-08-30T16:42:21.349Z,0.35
2022-08-30T16:56:12.259Z,0.50
2022-08-30T17:14:30.794Z,0.30
2022-08-30T17:17:00.625Z,0.27
2022-08-30T17:25:07.964Z,0.20
2022-08-30T17:27:35.383Z,0.35
2022-08-30T17:30:09.598Z,0.30
2022-08-30T17:32:37.312Z,0.20
2022-08-30T17:35:06.104Z,0.30
2022-08-30T17:40:15.869Z,0.20
2022-08-30T17:42:45.203Z,0.40
2022-08-30T17:45:18.817Z,0.38
2022-08-30T17:47:47.555Z,0.43
2022-08-30T18:04:08.431Z,0.50
2022-08-30T18:06:40.721Z,1.50
2022-08-30T18:09:15.873Z,0.28
2022-08-30T18:11:46.589Z,0.50
2022-08-30T18:14:43.102Z,0.30
2022-08-30T18:17:36.761Z,0.50
2022-08-30T18:20:46.487Z,0.50
2022-08-30T18:23:19.580Z,0.47
2022-08-30T18:26:05.523Z,0.70
2022-08-30T18:28:42.198Z,0.55
2022-08-30T18:31:21.513Z,0.30
2022-08-30T18:33:57.497Z,0.40
2022-08-30T18:36:53.729Z,0.30
2022-08-30T18:39:23.773Z,0.40
2022-08-30T18:41:58.913Z,0.50
2022-08-30T18:44:29.217Z,0.50
2022-08-30T18:50:01.367Z,1.35
2022-08-30T18:52:30.556Z,0.60
2022-08-30T18:55:04.258Z,0.70
2022-08-30T18:57:33.775Z,0.60
2022-08-30T19:00:05.153Z,0.50
2022-08-30T19:02:33.790Z,0.38
2022-08-30T19:05:01.329Z,0.47
2022-08-30T19:07:34.623Z,0.50
2022-08-30T19:10:12.230Z,0.30
2022-08-30T19:12:45.401Z,0.80
2022-08-30T19:15:13.695Z,0.95
2022-08-30T19:47:47.091Z,1.00
2022-08-30T19:50:20.255Z,1.20
2022-08-30T19:52:54.424Z,1.30
2022-08-30T19:55:31.558Z,1.95
2022-08-30T19:58:05.826Z,1.40
2022-08-30T20:00:33.934Z,1.42
2022-08-30T20:03:04.581Z,1.60
2022-08-30T20:08:13.701Z,1.20
2022-08-30T20:10:43.826Z,1.58
2022-08-30T20:16:04.004Z,1.90
2022-08-30T20:18:38.314Z,2.15
2022-08-30T20:21:13.360Z,1.70
2022-08-30T20:47:34.026Z,1.17
2022-08-30T20:50:02.989Z,1.10
2022-08-30T20:58:06.799Z,0.95
2022-08-30T21:31:43.098Z,0.88
2022-08-30T21:34:17.594Z,1.00
2022-08-30T22:26:28.202Z,1.00
